createdAt,value
2024-05-09T00:00:43.685Z,3.40
2024-05-09T00:03:13.964Z,3.40
2024-05-09T00:05:44.770Z,3.60
2024-05-09T00:08:16.245Z,3.30
2024-05-09T00:10:46.261Z,3.20
2024-05-09T00:13:19.422Z,3.10
2024-05-09T00:15:49.547Z,3.50
2024-05-09T00:18:19.546Z,3.60
2024-05-09T00:20:49.695Z,3.00
2024-05-09T00:23:19.841Z,3.00
2024-05-09T00:25:49.873Z,3.10
2024-05-09T00:28:19.860Z,3.10
2024-05-09T00:30:49.882Z,3.30
2024-05-09T00:33:20.248Z,3.40
2024-05-09T00:35:50.403Z,3.30
2024-05-09T00:38:20.373Z,3.30
2024-05-09T00:40:50.358Z,3.40
2024-05-09T00:43:20.365Z,3.60
2024-05-09T00:45:50.324Z,3.80
2024-05-09T00:48:21.579Z,3.50
2024-05-09T00:50:53.894Z,3.30
2024-05-09T00:53:24.954Z,3.00
2024-05-09T00:55:55.240Z,3.70
2024-05-09T00:58:28.228Z,3.50
2024-05-09T01:01:00.487Z,3.20
2024-05-09T01:03:30.740Z,3.50
2024-05-09T01:06:00.867Z,3.30
2024-05-09T01:08:31.075Z,3.30
2024-05-09T01:11:01.258Z,3.90
2024-05-09T01:13:31.434Z,3.70
2024-05-09T01:16:01.544Z,3.70
2024-05-09T01:18:31.797Z,3.30
2024-05-09T01:21:01.854Z,3.70
2024-05-09T01:23:31.893Z,4.20
2024-05-09T01:26:01.928Z,3.50
2024-05-09T01:28:31.891Z,3.80
2024-05-09T01:31:01.842Z,3.60
2024-05-09T01:33:32.084Z,4.30
2024-05-09T01:36:02.486Z,3.70
2024-05-09T01:38:32.594Z,3.60
2024-05-09T01:41:02.726Z,3.70
2024-05-09T01:43:32.930Z,3.90
2024-05-09T01:46:02.868Z,4.10
2024-05-09T01:48:32.833Z,4.00
2024-05-09T01:51:02.958Z,3.70
2024-05-09T01:53:33.283Z,3.60
2024-05-09T01:56:03.488Z,4.00
2024-05-09T01:58:33.377Z,3.50
2024-05-09T02:01:03.353Z,3.70
2024-05-09T02:03:33.376Z,3.50
2024-05-09T02:06:03.620Z,3.60
2024-05-09T02:08:33.779Z,3.60
2024-05-09T02:11:04.002Z,3.70
2024-05-09T02:13:34.862Z,3.70
2024-05-09T02:16:05.325Z,3.70
2024-05-09T02:18:35.806Z,3.70
2024-05-09T02:21:06.568Z,3.40
2024-05-09T02:23:36.732Z,3.50
2024-05-09T02:26:07.003Z,3.40
2024-05-09T02:28:37.058Z,3.90
2024-05-09T02:31:07.212Z,3.80
2024-05-09T02:33:37.492Z,3.90
2024-05-09T02:36:09.104Z,3.90
2024-05-09T02:38:39.344Z,4.40
2024-05-09T02:41:10.800Z,4.20
2024-05-09T02:43:40.804Z,4.00
2024-05-09T02:46:10.704Z,3.70
2024-05-09T02:48:40.675Z,3.60
2024-05-09T02:51:10.897Z,3.80
2024-05-09T02:53:40.891Z,3.60
2024-05-09T02:56:11.014Z,3.50
2024-05-09T02:58:41.044Z,4.00
2024-05-09T03:01:10.982Z,3.60
2024-05-09T03:03:44.966Z,3.70
2024-05-09T03:06:15.037Z,3.90
2024-05-09T03:08:47.511Z,3.60
2024-05-09T03:11:24.309Z,4.10
2024-05-09T03:13:55.152Z,3.80
2024-05-09T03:16:25.228Z,3.80
2024-05-09T03:18:55.463Z,4.20
2024-05-09T03:21:25.609Z,3.80
2024-05-09T03:23:55.509Z,4.30
2024-05-09T03:26:25.536Z,4.30
2024-05-09T03:28:58.743Z,4.10
2024-05-09T03:31:28.652Z,4.00
2024-05-09T03:33:58.635Z,4.00
2024-05-09T03:36:28.710Z,4.00
2024-05-09T03:38:58.614Z,3.50
2024-05-09T03:41:28.691Z,4.10
2024-05-09T03:43:58.769Z,4.50
2024-05-09T03:46:28.844Z,4.40
2024-05-09T03:48:58.920Z,4.20
2024-05-09T03:51:28.938Z,4.30
2024-05-09T03:53:58.902Z,4.10
2024-05-09T03:56:28.881Z,5.10
2024-05-09T03:58:59.369Z,4.60
2024-05-09T04:01:29.852Z,4.40
2024-05-09T04:03:59.947Z,4.80
2024-05-09T04:06:29.932Z,4.90
2024-05-09T04:08:59.804Z,4.80
2024-05-09T04:11:29.805Z,4.70
2024-05-09T04:13:59.854Z,4.50
2024-05-09T04:16:29.899Z,4.50
2024-05-09T04:18:59.809Z,4.50
2024-05-09T04:21:29.803Z,4.90
2024-05-09T04:23:59.705Z,4.50
2024-05-09T04:26:29.711Z,4.20
2024-05-09T04:28:59.783Z,4.30
2024-05-09T04:31:30.053Z,4.20
2024-05-09T04:34:00.116Z,4.60
2024-05-09T04:36:30.210Z,4.30
2024-05-09T04:39:00.109Z,4.70
2024-05-09T04:41:30.085Z,4.50
2024-05-09T04:44:00.142Z,4.90
2024-05-09T04:46:30.150Z,4.80
2024-05-09T04:49:00.162Z,4.60
2024-05-09T04:51:30.193Z,4.80
2024-05-09T04:54:00.121Z,5.10
2024-05-09T04:56:30.031Z,4.90
2024-05-09T04:59:00.078Z,4.80
2024-05-09T05:01:30.239Z,4.60
2024-05-09T05:04:00.623Z,4.50
2024-05-09T05:06:31.046Z,4.50
2024-05-09T05:09:00.910Z,4.50
2024-05-09T05:11:30.900Z,4.80
2024-05-09T05:14:00.941Z,4.50
2024-05-09T05:16:30.972Z,4.50
2024-05-09T05:19:01.090Z,4.50
2024-05-09T05:21:31.220Z,4.90
2024-05-09T05:24:01.233Z,4.80
2024-05-09T05:26:31.139Z,4.80
2024-05-09T05:29:01.177Z,4.90
2024-05-09T05:31:31.226Z,5.00
2024-05-09T05:34:01.264Z,5.00
2024-05-09T05:36:31.288Z,5.10
2024-05-09T05:39:01.200Z,5.10
2024-05-09T05:41:31.166Z,5.10
2024-05-09T05:44:01.616Z,4.70
2024-05-09T05:46:31.599Z,5.00
2024-05-09T05:49:01.593Z,4.90
2024-05-09T05:51:31.621Z,5.10
2024-05-09T05:54:01.524Z,5.00
2024-05-09T05:56:31.576Z,5.70
2024-05-09T05:59:01.710Z,5.10
2024-05-09T06:01:31.734Z,4.80
2024-05-09T06:04:01.765Z,4.90
2024-05-09T06:06:31.964Z,5.10
2024-05-09T06:09:01.908Z,4.90
2024-05-09T06:11:32.054Z,4.60
2024-05-09T06:14:02.107Z,4.80
2024-05-09T06:16:32.178Z,5.00
2024-05-09T06:19:02.130Z,4.80
2024-05-09T06:21:32.033Z,4.90
2024-05-09T06:24:06.221Z,4.60
2024-05-09T06:26:36.672Z,4.80
2024-05-09T06:29:06.776Z,4.50
2024-05-09T06:31:41.286Z,4.80
2024-05-09T06:34:11.616Z,4.50
2024-05-09T06:36:42.002Z,4.80
2024-05-09T06:39:11.884Z,6.20
2024-05-09T06:41:42.280Z,6.00
2024-05-09T06:44:12.624Z,5.00
2024-05-09T06:46:42.765Z,4.70
2024-05-09T06:49:13.398Z,4.70
2024-05-09T06:51:43.506Z,4.90
2024-05-09T06:54:13.402Z,4.70
2024-05-09T06:56:43.326Z,4.30
2024-05-09T06:59:13.226Z,4.60
2024-05-09T07:01:43.477Z,4.20
2024-05-09T07:04:13.523Z,4.50
2024-05-09T07:06:43.541Z,4.40
2024-05-09T07:09:13.445Z,4.40
2024-05-09T07:11:43.398Z,4.20
2024-05-09T07:14:13.417Z,4.20
2024-05-09T07:16:43.343Z,4.30
2024-05-09T07:19:13.337Z,5.80
2024-05-09T07:21:43.370Z,4.00
2024-05-09T07:24:13.253Z,4.00
2024-05-09T07:26:43.241Z,4.40
2024-05-09T07:29:13.176Z,4.50
2024-05-09T07:31:43.140Z,3.80
2024-05-09T07:34:13.054Z,4.60
2024-05-09T07:36:43.037Z,4.20
2024-05-09T07:39:12.881Z,4.10
2024-05-09T07:41:42.745Z,4.30
2024-05-09T07:44:12.656Z,4.40
2024-05-09T07:50:56.068Z,3.70
2024-05-09T07:54:40.166Z,3.80
2024-05-09T07:57:10.135Z,4.10
2024-05-09T07:59:40.051Z,8.90
2024-05-09T08:02:10.274Z,4.90
2024-05-09T08:04:40.424Z,4.90
2024-05-09T08:07:10.600Z,4.10
2024-05-09T08:09:41.279Z,4.00
2024-05-09T08:12:12.784Z,3.90
2024-05-09T08:14:42.948Z,4.30
2024-05-09T08:17:12.901Z,4.20
2024-05-09T08:19:42.954Z,4.30
2024-05-09T08:22:13.131Z,3.80
2024-05-09T08:24:45.641Z,4.10
2024-05-09T08:27:15.652Z,4.20
2024-05-09T08:29:45.564Z,4.10
2024-05-09T08:32:16.587Z,3.90
2024-05-09T08:34:46.584Z,4.00
2024-05-09T08:37:22.331Z,3.90
2024-05-09T08:39:54.792Z,4.00
2024-05-09T08:42:25.424Z,4.20
2024-05-09T08:44:55.287Z,3.80
2024-05-09T08:47:27.245Z,3.50
2024-05-09T08:49:59.063Z,4.90
2024-05-09T08:52:29.247Z,5.80
2024-05-09T08:54:59.164Z,3.50
2024-05-09T08:57:30.875Z,3.80
2024-05-09T09:00:06.256Z,4.00
2024-05-09T09:02:40.050Z,3.40
2024-05-09T09:05:16.629Z,3.00
2024-05-09T09:07:48.428Z,3.60
2024-05-09T09:10:28.983Z,3.40
2024-05-09T09:13:04.731Z,2.60
2024-05-09T09:15:35.345Z,3.00
2024-05-09T09:20:37.254Z,3.30
2024-05-09T09:23:08.684Z,3.20
2024-05-09T09:25:41.270Z,3.20
2024-05-09T09:28:12.118Z,2.80
2024-05-09T09:30:43.199Z,3.10
2024-05-09T09:33:14.142Z,2.90
2024-05-09T09:35:44.477Z,2.80
2024-05-09T09:38:18.991Z,3.40
2024-05-09T09:40:50.571Z,3.00
2024-05-09T09:43:22.947Z,3.30
2024-05-09T09:45:59.137Z,3.80
2024-05-09T09:48:31.364Z,3.10
2024-05-09T09:51:02.194Z,3.50
2024-05-09T09:53:34.161Z,2.90
2024-05-09T09:56:05.357Z,2.90
2024-05-09T09:58:37.012Z,2.80
2024-05-09T10:01:07.393Z,3.20
2024-05-09T10:03:37.687Z,3.90
2024-05-09T10:06:09.567Z,3.70
2024-05-09T10:08:40.219Z,3.90
2024-05-09T10:11:10.845Z,3.80
2024-05-09T10:13:44.847Z,3.70
2024-05-09T10:16:20.826Z,3.90
2024-05-09T10:18:51.113Z,3.70
2024-05-09T10:21:21.878Z,4.00
2024-05-09T10:24:03.237Z,4.10
2024-05-09T10:26:34.155Z,4.00
2024-05-09T10:29:12.938Z,4.00
2024-05-09T10:31:46.491Z,3.90
2024-05-09T10:34:23.999Z,4.00
2024-05-09T10:36:57.561Z,3.00
2024-05-09T10:39:28.283Z,3.90
2024-05-09T10:41:58.231Z,3.80
2024-05-09T10:44:29.310Z,4.20
2024-05-09T10:46:59.309Z,4.00
2024-05-09T10:49:29.455Z,3.80
2024-05-09T10:51:59.439Z,3.90
2024-05-09T10:54:39.004Z,3.90
2024-05-09T10:57:09.181Z,3.60
2024-05-09T10:59:42.237Z,3.40
2024-05-09T11:02:13.541Z,3.50
2024-05-09T11:04:45.001Z,3.80
2024-05-09T11:07:17.020Z,4.00
2024-05-09T11:09:47.572Z,3.10
2024-05-09T11:12:19.989Z,3.80
2024-05-09T11:14:57.114Z,3.60
2024-05-09T11:17:27.341Z,3.80
2024-05-09T11:19:57.452Z,3.60
2024-05-09T11:22:33.609Z,3.80
2024-05-09T11:25:04.928Z,3.70
2024-05-09T11:27:34.970Z,3.10
2024-05-09T11:30:09.170Z,4.10
2024-05-09T11:32:43.372Z,4.00
2024-05-09T11:35:13.723Z,3.70
2024-05-09T11:37:43.666Z,3.60
2024-05-09T11:40:21.370Z,3.40
2024-05-09T11:42:55.642Z,3.40
2024-05-09T11:45:25.655Z,3.60
2024-05-09T11:47:55.840Z,3.30
2024-05-09T11:50:30.202Z,3.30
2024-05-09T11:53:05.251Z,3.50
2024-05-09T11:58:06.618Z,3.00
2024-05-09T12:00:37.749Z,2.70
2024-05-09T12:03:08.520Z,2.80
2024-05-09T12:05:38.635Z,2.70
2024-05-09T12:08:09.657Z,2.60
2024-05-09T12:10:39.898Z,2.70
2024-05-09T12:13:10.091Z,2.80
2024-05-09T12:15:40.329Z,3.00
2024-05-09T12:18:10.376Z,2.90
2024-05-09T12:20:40.492Z,2.90
2024-05-09T12:23:11.108Z,2.50
2024-05-09T12:25:41.673Z,2.70
2024-05-09T12:28:14.122Z,3.00
2024-05-09T12:30:44.145Z,2.90
2024-05-09T12:33:14.720Z,3.00
2024-05-09T12:35:46.743Z,3.10
2024-05-09T12:38:18.951Z,2.70
2024-05-09T12:40:48.934Z,2.80
2024-05-09T12:43:19.298Z,2.80
2024-05-09T12:45:49.618Z,2.60
2024-05-09T12:48:19.817Z,3.00
2024-05-09T12:50:49.864Z,2.40
2024-05-09T12:53:19.839Z,2.30
2024-05-09T12:55:56.678Z,2.60
2024-05-09T12:58:30.172Z,2.60
2024-05-09T13:01:00.292Z,2.50
2024-05-09T13:03:30.496Z,2.50
2024-05-09T13:06:00.580Z,2.40
2024-05-09T13:08:30.646Z,2.10
2024-05-09T13:11:01.008Z,2.30
2024-05-09T13:13:30.880Z,2.30
2024-05-09T13:16:00.892Z,2.30
2024-05-09T13:18:33.151Z,2.60
2024-05-09T13:21:03.275Z,2.20
2024-05-09T13:23:33.234Z,2.30
2024-05-09T13:26:03.195Z,2.30
2024-05-09T13:28:33.336Z,2.30
2024-05-09T13:31:04.277Z,2.40
2024-05-09T13:33:35.163Z,2.40
2024-05-09T13:36:06.280Z,2.50
2024-05-09T13:38:36.235Z,2.30
2024-05-09T13:41:06.515Z,2.10
2024-05-09T13:43:36.454Z,2.40
2024-05-09T13:46:07.169Z,2.40
2024-05-09T13:48:37.245Z,2.30
2024-05-09T13:51:08.098Z,2.60
2024-05-09T13:53:38.105Z,2.20
2024-05-09T13:56:09.150Z,2.10
2024-05-09T13:58:39.193Z,2.50
2024-05-09T14:01:09.230Z,2.10
2024-05-09T14:03:39.387Z,2.20
2024-05-09T14:06:13.010Z,1.80
2024-05-09T14:08:43.503Z,2.00
2024-05-09T14:11:13.547Z,2.20
2024-05-09T14:13:43.639Z,2.00
2024-05-09T14:16:14.201Z,2.20
2024-05-09T14:18:44.417Z,2.00
2024-05-09T14:21:14.507Z,2.10
2024-05-09T14:23:44.405Z,2.20
2024-05-09T14:26:14.584Z,2.00
2024-05-09T14:28:44.487Z,2.10
2024-05-09T14:31:14.424Z,2.10
2024-05-09T14:33:44.654Z,2.00
2024-05-09T14:36:14.668Z,2.20
2024-05-09T14:38:44.723Z,2.10
2024-05-09T14:41:16.995Z,2.00
2024-05-09T14:43:46.914Z,1.90
2024-05-09T14:46:17.031Z,2.20
2024-05-09T14:48:47.451Z,2.20
2024-05-09T14:51:17.552Z,2.10
2024-05-09T14:53:47.618Z,2.30
2024-05-09T14:56:17.995Z,2.10
2024-05-09T14:58:47.991Z,2.00
2024-05-09T15:01:20.206Z,2.00
2024-05-09T15:03:50.560Z,2.10
2024-05-09T15:06:20.845Z,2.10
2024-05-09T15:08:57.015Z,1.90
2024-05-09T15:11:27.440Z,2.10
2024-05-09T15:13:57.369Z,1.90
2024-05-09T15:16:27.794Z,2.10
2024-05-09T15:18:59.004Z,2.10
2024-05-09T15:21:29.131Z,2.10
2024-05-09T15:24:00.041Z,2.30
2024-05-09T15:26:30.020Z,2.50
2024-05-09T15:28:59.959Z,2.00
2024-05-09T15:31:29.914Z,2.20
2024-05-09T15:34:00.087Z,2.10
2024-05-09T15:36:30.248Z,2.20
2024-05-09T15:39:00.354Z,2.20
2024-05-09T15:41:30.273Z,2.10
2024-05-09T15:44:00.147Z,2.30
2024-05-09T15:46:30.176Z,2.20
2024-05-09T15:49:00.564Z,2.00
2024-05-09T15:51:30.680Z,2.10
2024-05-09T15:54:00.703Z,2.50
2024-05-09T15:56:31.000Z,2.20
2024-05-09T15:59:01.354Z,2.10
2024-05-09T16:01:31.430Z,2.10
2024-05-09T16:04:01.703Z,2.10
2024-05-09T16:06:33.409Z,2.20
2024-05-09T16:09:03.593Z,1.90
2024-05-09T16:11:33.518Z,2.30
2024-05-09T16:14:03.465Z,2.20
2024-05-09T16:16:33.637Z,2.10
2024-05-09T16:19:03.684Z,2.20
2024-05-09T16:21:33.680Z,2.00
2024-05-09T16:24:03.679Z,1.90
2024-05-09T16:26:33.773Z,2.00
2024-05-09T16:29:03.829Z,2.40
2024-05-09T16:31:33.749Z,2.20
2024-05-09T16:34:03.876Z,1.80
2024-05-09T16:36:33.995Z,2.20
2024-05-09T16:39:04.350Z,2.30
2024-05-09T16:41:37.423Z,2.00
2024-05-09T16:44:07.646Z,2.30
2024-05-09T16:46:40.065Z,2.20
2024-05-09T16:49:10.990Z,2.20
2024-05-09T16:51:40.932Z,2.40
2024-05-09T16:54:10.874Z,2.60
2024-05-09T16:56:41.005Z,2.20
2024-05-09T16:59:11.115Z,2.20
2024-05-09T17:01:41.095Z,2.10
2024-05-09T17:04:11.290Z,2.20
2024-05-09T17:06:41.487Z,2.10
2024-05-09T17:09:15.445Z,2.10
2024-05-09T17:11:45.688Z,2.10
2024-05-09T17:14:16.182Z,2.30
2024-05-09T17:16:46.102Z,2.50
2024-05-09T17:19:16.973Z,2.20
2024-05-09T17:21:47.012Z,2.10
2024-05-09T17:24:17.329Z,1.90
2024-05-09T17:26:47.344Z,2.00
2024-05-09T17:29:17.345Z,2.00
2024-05-09T17:31:47.210Z,2.00
2024-05-09T17:34:17.327Z,2.10
2024-05-09T17:36:47.453Z,2.00
2024-05-09T17:39:17.386Z,2.00
2024-05-09T17:41:47.262Z,2.20
2024-05-09T17:44:17.213Z,2.30
2024-05-09T17:46:47.082Z,1.80
2024-05-09T17:49:17.112Z,2.10
2024-05-09T17:51:53.925Z,2.00
2024-05-09T17:56:52.671Z,2.10
2024-05-09T17:59:22.554Z,2.30
2024-05-09T18:01:52.498Z,2.20
2024-05-09T18:04:22.605Z,2.10
2024-05-09T18:06:52.591Z,2.90
2024-05-09T18:09:22.540Z,2.60
2024-05-09T18:11:54.834Z,2.40
2024-05-09T18:14:24.804Z,2.40
2024-05-09T18:16:54.767Z,2.30
2024-05-09T18:19:24.859Z,3.00
2024-05-09T18:21:55.619Z,2.80
2024-05-09T18:24:25.559Z,2.30
2024-05-09T18:26:55.657Z,2.50
2024-05-09T18:29:25.565Z,2.60
2024-05-09T18:31:55.651Z,2.50
2024-05-09T18:34:25.654Z,2.40
2024-05-09T18:36:55.921Z,2.40
2024-05-09T18:39:25.900Z,2.90
2024-05-09T18:41:55.832Z,2.30
2024-05-09T18:44:26.796Z,2.70
2024-05-09T18:46:56.752Z,2.50
2024-05-09T18:49:26.979Z,2.70
2024-05-09T18:51:57.034Z,2.50
2024-05-09T18:54:26.989Z,2.50
2024-05-09T18:56:56.914Z,3.90
2024-05-09T18:59:27.030Z,22.10
2024-05-09T19:01:57.258Z,3.40
2024-05-09T19:04:27.389Z,2.90
2024-05-09T19:06:57.582Z,2.90
2024-05-09T19:09:27.565Z,2.90
2024-05-09T19:12:02.883Z,3.20
2024-05-09T19:14:32.768Z,3.10
2024-05-09T19:17:03.109Z,2.90
2024-05-09T19:19:33.169Z,3.20
2024-05-09T19:22:06.971Z,3.20
2024-05-09T19:24:36.938Z,3.20
2024-05-09T19:27:07.411Z,3.20
2024-05-09T19:29:37.325Z,3.10
2024-05-09T19:32:08.500Z,3.40
2024-05-09T19:34:38.597Z,3.00
2024-05-09T19:37:09.282Z,3.50
2024-05-09T19:39:39.243Z,2.90
2024-05-09T19:42:09.212Z,3.20
2024-05-09T19:44:39.182Z,3.80
2024-05-09T19:47:09.103Z,3.40
2024-05-09T19:49:39.131Z,3.20
2024-05-09T19:52:09.427Z,3.60
2024-05-09T19:54:39.612Z,3.50
2024-05-09T19:57:14.328Z,3.70
2024-05-09T19:59:44.337Z,3.50
2024-05-09T20:02:15.099Z,3.40
2024-05-09T20:04:45.622Z,7.10
2024-05-09T20:07:15.796Z,3.90
2024-05-09T20:09:45.804Z,3.90
2024-05-09T20:12:15.734Z,3.80
2024-05-09T20:14:45.744Z,4.10
2024-05-09T20:17:15.619Z,4.20
2024-05-09T20:19:46.196Z,3.90
2024-05-09T20:22:17.015Z,4.10
2024-05-09T20:24:47.379Z,3.80
2024-05-09T20:27:17.591Z,3.70
2024-05-09T20:29:47.522Z,4.00
2024-05-09T20:32:17.754Z,4.20
2024-05-09T20:34:50.232Z,3.60
2024-05-09T20:37:20.518Z,4.10
2024-05-09T20:39:53.364Z,4.20
2024-05-09T20:42:23.627Z,4.70
2024-05-09T20:44:53.523Z,4.50
2024-05-09T20:47:23.723Z,4.50
2024-05-09T20:49:53.804Z,5.00
2024-05-09T20:52:23.757Z,4.60
2024-05-09T20:54:53.620Z,4.60
2024-05-09T20:57:23.679Z,4.40
2024-05-09T20:59:53.533Z,4.50
2024-05-09T21:02:23.618Z,5.00
2024-05-09T21:04:53.804Z,5.40
2024-05-09T21:07:25.386Z,4.60
2024-05-09T21:09:56.067Z,5.20
2024-05-09T21:12:26.328Z,5.00
2024-05-09T21:14:56.500Z,9.00
2024-05-09T21:17:26.499Z,12.90
2024-05-09T21:19:56.693Z,5.60
2024-05-09T21:22:26.651Z,4.90
2024-05-09T21:24:56.589Z,4.80
2024-05-09T21:27:29.125Z,5.40
2024-05-09T21:29:59.001Z,5.20
2024-05-09T21:32:28.909Z,5.90
2024-05-09T21:34:58.954Z,5.40
2024-05-09T21:37:31.618Z,5.80
2024-05-09T21:40:05.108Z,5.80
2024-05-09T21:42:37.094Z,5.70
2024-05-09T21:45:08.936Z,5.80
2024-05-09T21:47:39.113Z,5.50
2024-05-09T21:50:18.301Z,5.50
2024-05-09T21:52:52.186Z,5.80
2024-05-09T21:55:22.178Z,5.50
2024-05-09T21:57:52.159Z,5.00
2024-05-09T22:00:28.980Z,5.60
2024-05-09T22:03:05.960Z,5.80
2024-05-09T22:05:37.146Z,5.30
2024-05-09T22:08:08.901Z,5.60
2024-05-09T22:10:38.940Z,5.60
2024-05-09T22:13:09.329Z,5.50
2024-05-09T22:15:40.714Z,5.00
2024-05-09T22:18:11.834Z,5.50
2024-05-09T22:20:43.917Z,5.80
2024-05-09T22:23:15.945Z,5.90
2024-05-09T22:25:45.900Z,6.40
2024-05-09T22:28:17.131Z,5.30
2024-05-09T22:30:47.743Z,5.70
2024-05-09T22:33:18.177Z,5.40
2024-05-09T22:35:48.371Z,6.20
2024-05-09T22:38:18.229Z,5.60
2024-05-09T22:40:49.864Z,5.20
2024-05-09T22:43:23.319Z,5.60
2024-05-09T22:45:55.561Z,5.60
2024-05-09T22:48:26.572Z,5.70
2024-05-09T22:50:56.619Z,5.60
2024-05-09T22:53:26.853Z,5.70
2024-05-09T22:55:56.737Z,5.30
2024-05-09T22:58:26.718Z,5.40
2024-05-09T23:00:56.702Z,6.30
2024-05-09T23:03:26.932Z,5.90
2024-05-09T23:05:56.981Z,6.10
2024-05-09T23:08:26.877Z,5.80
2024-05-09T23:10:56.845Z,5.70
2024-05-09T23:13:26.988Z,6.30
2024-05-09T23:15:57.128Z,5.40
2024-05-09T23:18:27.093Z,5.60
2024-05-09T23:20:57.243Z,6.40
2024-05-09T23:23:27.162Z,6.20
2024-05-09T23:25:57.073Z,6.50
2024-05-09T23:28:27.016Z,6.00
2024-05-09T23:30:57.022Z,6.30
2024-05-09T23:33:27.171Z,6.10
2024-05-09T23:35:57.144Z,6.10
2024-05-09T23:38:27.201Z,5.90
2024-05-09T23:40:57.146Z,6.50
2024-05-09T23:43:27.280Z,6.20
2024-05-09T23:45:57.421Z,5.80
2024-05-09T23:48:27.709Z,6.10
2024-05-09T23:50:57.614Z,5.80
2024-05-09T23:53:27.574Z,6.20
2024-05-09T23:55:57.546Z,6.40
2024-05-09T23:58:28.891Z,6.00
